createdAt,value
2018-02-13T00:01:53.045Z,2.27
2018-02-13T00:04:21.169Z,2.15
2018-02-13T00:06:49.293Z,2.10
2018-02-13T00:09:17.406Z,2.10
2018-02-13T00:11:45.542Z,2.20
2018-02-13T00:14:13.647Z,2.22
2018-02-13T00:16:41.775Z,2.17
2018-02-13T00:19:09.883Z,2.13
2018-02-13T00:21:38.022Z,2.22
2018-02-13T00:24:06.270Z,2.31
2018-02-13T00:26:37.774Z,2.17
2018-02-13T00:29:05.910Z,2.16
2018-02-13T00:31:34.022Z,2.16
2018-02-13T00:34:02.193Z,2.09
2018-02-13T00:36:30.266Z,1.94
2018-02-13T00:38:58.429Z,1.93
2018-02-13T00:41:26.493Z,2.25
2018-02-13T00:43:54.609Z,2.20
2018-02-13T00:46:22.725Z,1.83
2018-02-13T00:48:50.828Z,1.89
2018-02-13T00:51:18.935Z,1.97
2018-02-13T00:53:47.047Z,2.00
2018-02-13T00:56:15.211Z,2.01
2018-02-13T00:58:43.328Z,2.05
2018-02-13T01:01:11.444Z,1.87
2018-02-13T01:03:39.565Z,1.90
2018-02-13T01:06:07.686Z,1.74
2018-02-13T01:08:35.789Z,1.91
2018-02-13T01:11:03.900Z,1.99
2018-02-13T01:13:32.099Z,2.07
2018-02-13T01:16:00.126Z,1.94
2018-02-13T01:18:28.223Z,1.86
2018-02-13T01:20:56.347Z,1.81
2018-02-13T01:23:24.458Z,1.73
2018-02-13T01:25:52.579Z,1.75
2018-02-13T01:28:20.702Z,1.88
2018-02-13T01:30:48.813Z,1.92
2018-02-13T01:33:16.919Z,2.01
2018-02-13T01:35:45.034Z,1.88
2018-02-13T01:38:13.171Z,1.88
2018-02-13T01:40:41.276Z,1.79
2018-02-13T01:43:09.384Z,1.79
2018-02-13T01:45:37.500Z,1.79
2018-02-13T01:48:05.618Z,1.90
2018-02-13T01:50:33.723Z,1.73
2018-02-13T01:53:01.858Z,1.89
2018-02-13T01:55:29.961Z,1.86
2018-02-13T01:57:58.086Z,1.82
2018-02-13T02:00:26.210Z,1.84
2018-02-13T02:02:54.336Z,1.83
2018-02-13T02:05:22.450Z,1.85
2018-02-13T02:07:50.560Z,1.78
2018-02-13T02:10:18.681Z,1.74
2018-02-13T02:12:46.818Z,1.79
2018-02-13T02:15:14.903Z,1.94
2018-02-13T02:17:43.029Z,2.09
2018-02-13T02:20:11.133Z,1.93
2018-02-13T02:22:39.247Z,2.00
2018-02-13T02:25:07.369Z,1.99
2018-02-13T02:27:35.480Z,2.06
2018-02-13T02:30:03.589Z,2.10
2018-02-13T02:32:31.714Z,2.10
2018-02-13T02:34:59.830Z,2.22
2018-02-13T02:37:27.930Z,2.24
2018-02-13T02:39:56.053Z,2.04
2018-02-13T02:42:24.303Z,2.11
2018-02-13T02:44:52.414Z,2.16
2018-02-13T02:47:20.510Z,2.10
2018-02-13T02:49:48.628Z,2.14
2018-02-13T02:52:16.731Z,2.04
2018-02-13T02:54:44.903Z,1.98
2018-02-13T02:57:13.110Z,2.11
2018-02-13T02:59:41.261Z,2.03
2018-02-13T03:02:09.369Z,2.08
2018-02-13T03:04:37.483Z,1.94
2018-02-13T03:07:05.603Z,1.99
2018-02-13T03:09:33.718Z,1.97
2018-02-13T03:12:01.818Z,1.93
2018-02-13T03:14:29.936Z,1.92
2018-02-13T03:16:58.044Z,1.98
2018-02-13T03:19:26.156Z,1.81
2018-02-13T03:21:54.254Z,1.94
2018-02-13T03:24:22.362Z,1.94
2018-02-13T03:26:50.480Z,1.94
2018-02-13T03:29:18.592Z,1.98
2018-02-13T03:31:46.687Z,1.94
2018-02-13T03:34:14.807Z,2.05
2018-02-13T03:36:42.906Z,1.93
2018-02-13T03:39:11.034Z,2.01
2018-02-13T03:41:39.159Z,1.93
2018-02-13T03:44:07.273Z,1.88
2018-02-13T03:46:35.375Z,1.80
2018-02-13T03:49:03.483Z,1.91
2018-02-13T03:51:31.619Z,1.89
2018-02-13T03:53:59.702Z,1.93
2018-02-13T03:56:27.828Z,1.74
2018-02-13T03:58:55.933Z,1.54
2018-02-13T04:01:24.030Z,1.51
2018-02-13T04:03:52.135Z,1.43
2018-02-13T04:06:20.234Z,1.51
2018-02-13T04:08:48.343Z,1.61
2018-02-13T04:11:16.452Z,1.59
2018-02-13T04:13:44.573Z,1.72
2018-02-13T04:16:12.662Z,1.63
2018-02-13T04:18:40.797Z,1.69
2018-02-13T04:21:08.914Z,1.72
2018-02-13T04:23:37.015Z,1.65
2018-02-13T04:26:05.138Z,1.69
2018-02-13T04:28:33.223Z,1.66
2018-02-13T04:31:01.348Z,1.64
2018-02-13T04:33:29.482Z,1.52
2018-02-13T04:35:57.567Z,1.68
2018-02-13T04:38:25.685Z,1.74
2018-02-13T04:40:53.802Z,1.78
2018-02-13T04:43:21.920Z,1.67
2018-02-13T04:45:50.029Z,1.63
2018-02-13T04:48:18.316Z,1.60
2018-02-13T04:50:46.429Z,1.57
2018-02-13T04:53:14.533Z,1.57
2018-02-13T04:55:42.646Z,1.53
2018-02-13T04:58:14.089Z,1.50
2018-02-13T05:00:42.196Z,1.53
2018-02-13T05:03:10.320Z,1.54
2018-02-13T05:05:38.414Z,1.51
2018-02-13T05:08:06.524Z,1.44
2018-02-13T05:10:34.625Z,1.45
2018-02-13T05:13:02.803Z,1.40
2018-02-13T05:15:30.907Z,1.67
2018-02-13T05:17:59.012Z,1.45
2018-02-13T05:20:27.128Z,1.50
2018-02-13T05:22:55.241Z,1.61
2018-02-13T05:25:23.365Z,1.64
2018-02-13T05:27:51.466Z,1.55
2018-02-13T05:30:19.597Z,1.64
2018-02-13T05:32:47.691Z,1.68
2018-02-13T05:35:15.816Z,1.61
2018-02-13T05:37:43.915Z,1.58
2018-02-13T05:40:12.029Z,1.75
2018-02-13T05:42:40.158Z,1.77
2018-02-13T05:45:08.256Z,1.43
2018-02-13T05:47:36.389Z,1.53
2018-02-13T05:50:04.497Z,1.32
2018-02-13T05:52:32.620Z,1.34
2018-02-13T05:55:00.727Z,1.53
2018-02-13T05:57:28.830Z,1.43
2018-02-13T05:59:56.966Z,1.94
2018-02-13T06:02:25.069Z,1.68
2018-02-13T06:04:53.193Z,1.42
2018-02-13T06:07:21.308Z,1.43
2018-02-13T06:09:49.415Z,1.55
2018-02-13T06:12:17.512Z,1.26
2018-02-13T06:14:45.642Z,1.43
2018-02-13T06:17:13.765Z,1.46
2018-02-13T06:19:41.877Z,1.36
2018-02-13T06:22:09.996Z,1.43
2018-02-13T06:24:38.105Z,1.27
2018-02-13T06:27:06.219Z,1.32
2018-02-13T06:29:34.315Z,1.50
2018-02-13T06:32:02.437Z,1.31
2018-02-13T06:34:30.557Z,1.42
2018-02-13T06:36:58.670Z,1.46
2018-02-13T06:39:26.776Z,1.57
2018-02-13T06:41:54.882Z,1.44
2018-02-13T06:44:22.991Z,1.50
2018-02-13T06:46:51.090Z,1.51
2018-02-13T06:49:19.202Z,1.38
2018-02-13T06:51:47.321Z,1.49
2018-02-13T06:54:15.453Z,1.59
2018-02-13T06:56:43.556Z,1.59
2018-02-13T06:59:11.675Z,1.40
2018-02-13T07:01:39.797Z,1.59
2018-02-13T07:04:07.932Z,1.53
2018-02-13T07:06:36.052Z,1.54
2018-02-13T07:09:04.204Z,1.33
2018-02-13T07:11:32.310Z,1.41
2018-02-13T07:14:00.431Z,1.28
2018-02-13T07:16:28.554Z,1.58
2018-02-13T07:18:56.677Z,1.59
2018-02-13T07:21:24.786Z,1.44
2018-02-13T07:23:52.955Z,1.46
2018-02-13T07:26:21.074Z,1.46
2018-02-13T07:28:49.180Z,1.44
2018-02-13T07:31:17.297Z,1.46
2018-02-13T07:33:45.413Z,1.40
2018-02-13T07:36:13.510Z,1.63
2018-02-13T07:38:41.640Z,1.66
2018-02-13T07:41:09.749Z,1.54
2018-02-13T07:43:37.842Z,1.64
2018-02-13T07:46:05.978Z,1.65
2018-02-13T07:48:34.104Z,1.74
2018-02-13T07:51:02.211Z,1.81
2018-02-13T07:53:30.333Z,2.01
2018-02-13T07:55:58.442Z,2.01
2018-02-13T07:58:26.592Z,1.94
2018-02-13T08:00:54.774Z,2.35
2018-02-13T08:03:23.002Z,2.38
2018-02-13T08:05:51.108Z,2.65
2018-02-13T08:08:19.285Z,2.51
2018-02-13T08:10:47.417Z,2.92
2018-02-13T08:13:15.533Z,2.86
2018-02-13T08:15:43.771Z,2.94
2018-02-13T08:18:11.885Z,3.06
2018-02-13T08:20:40.003Z,3.36
2018-02-13T08:23:08.134Z,3.11
2018-02-13T08:25:36.247Z,3.20
2018-02-13T08:28:04.383Z,3.47
2018-02-13T08:30:32.509Z,3.67
2018-02-13T08:33:00.630Z,3.65
2018-02-13T08:35:28.847Z,3.62
2018-02-13T08:37:56.969Z,4.05
2018-02-13T08:40:25.109Z,3.92
2018-02-13T08:42:53.234Z,4.64
2018-02-13T08:45:21.342Z,4.70
2018-02-13T08:47:49.451Z,4.70
2018-02-13T08:50:17.817Z,4.80
2018-02-13T08:52:45.937Z,4.74
2018-02-13T08:55:14.035Z,4.61
2018-02-13T08:57:42.167Z,4.74
2018-02-13T09:00:10.277Z,4.89
2018-02-13T09:02:38.401Z,4.66
2018-02-13T09:05:06.519Z,4.73
2018-02-13T09:07:34.641Z,4.47
2018-02-13T09:10:02.799Z,4.09
2018-02-13T09:12:30.999Z,4.23
2018-02-13T09:14:59.149Z,4.52
2018-02-13T09:17:27.295Z,4.36
2018-02-13T09:19:55.435Z,4.70
2018-02-13T09:22:23.560Z,5.12
2018-02-13T09:24:51.673Z,4.31
2018-02-13T09:27:19.794Z,4.50
2018-02-13T09:29:47.890Z,4.95
2018-02-13T09:32:16.020Z,4.65
2018-02-13T09:34:44.128Z,4.99
2018-02-13T09:37:12.234Z,5.17
2018-02-13T09:39:40.361Z,5.35
2018-02-13T09:42:08.490Z,5.05
2018-02-13T09:44:36.612Z,4.99
2018-02-13T09:47:04.729Z,4.94
2018-02-13T09:49:32.836Z,5.15
2018-02-13T09:52:00.949Z,5.34
2018-02-13T09:54:29.078Z,5.31
2018-02-13T09:56:57.192Z,5.33
2018-02-13T09:59:25.358Z,5.23
2018-02-13T10:01:53.429Z,5.47
2018-02-13T10:04:21.536Z,5.26
2018-02-13T10:06:49.643Z,5.94
2018-02-13T10:09:17.756Z,5.61
2018-02-13T10:11:45.882Z,6.22
2018-02-13T10:14:13.970Z,5.78
2018-02-13T10:16:42.094Z,5.47
2018-02-13T10:19:10.203Z,5.76
2018-02-13T10:21:38.360Z,5.93
2018-02-13T10:24:06.646Z,5.77
2018-02-13T10:26:34.783Z,5.99
2018-02-13T10:29:06.459Z,6.10
2018-02-13T10:31:34.571Z,5.99
2018-02-13T10:34:02.668Z,5.84
2018-02-13T10:36:30.775Z,5.86
2018-02-13T10:38:58.887Z,5.96
2018-02-13T10:41:27.040Z,6.16
2018-02-13T10:43:55.153Z,5.90
2018-02-13T10:46:23.246Z,5.86
2018-02-13T10:48:51.387Z,5.98
2018-02-13T10:51:19.468Z,5.91
2018-02-13T10:53:47.621Z,6.46
2018-02-13T10:56:15.712Z,6.19
2018-02-13T10:58:43.826Z,6.19
2018-02-13T11:01:17.442Z,6.67
2018-02-13T11:03:45.548Z,6.67
2018-02-13T11:06:13.655Z,6.82
2018-02-13T11:08:41.791Z,6.55
2018-02-13T11:11:09.917Z,6.49
2018-02-13T11:13:41.548Z,6.49
2018-02-13T11:16:09.822Z,6.58
2018-02-13T11:18:37.934Z,6.69
2018-02-13T11:21:06.064Z,6.94
2018-02-13T11:23:34.175Z,6.79
2018-02-13T11:26:02.328Z,6.78
2018-02-13T11:28:30.436Z,6.72
2018-02-13T11:30:58.542Z,6.87
2018-02-13T11:33:26.758Z,6.77
2018-02-13T11:35:54.852Z,6.80
2018-02-13T11:38:22.988Z,6.58
2018-02-13T11:40:51.115Z,7.16
2018-02-13T11:43:19.243Z,7.05
2018-02-13T11:45:47.352Z,7.00
2018-02-13T11:48:15.769Z,7.05
2018-02-13T11:50:43.940Z,6.98
2018-02-13T11:53:12.042Z,7.06
2018-02-13T11:55:40.160Z,7.23
2018-02-13T11:58:08.285Z,7.41
2018-02-13T12:00:37.374Z,7.13
2018-02-13T12:03:05.480Z,7.05
2018-02-13T12:05:33.596Z,7.20
2018-02-13T12:08:01.709Z,7.18
2018-02-13T12:10:29.829Z,7.46
2018-02-13T12:12:57.931Z,7.26
2018-02-13T12:15:26.069Z,7.90
2018-02-13T12:17:54.156Z,7.26
2018-02-13T12:20:22.271Z,7.57
2018-02-13T12:22:50.408Z,7.43
2018-02-13T12:25:30.293Z,7.17
2018-02-13T12:27:58.394Z,7.32
2018-02-13T12:30:26.492Z,7.29
2018-02-13T12:32:54.604Z,7.51
2018-02-13T12:35:22.712Z,7.42
2018-02-13T12:37:50.844Z,7.51
2018-02-13T12:40:18.945Z,7.89
2018-02-13T12:42:47.056Z,8.25
2018-02-13T12:45:15.153Z,7.85
2018-02-13T12:47:43.267Z,7.99
2018-02-13T12:50:11.398Z,7.94
2018-02-13T12:52:39.515Z,8.47
2018-02-13T12:55:07.638Z,7.91
2018-02-13T12:57:35.736Z,7.91
2018-02-13T13:00:03.938Z,8.44
2018-02-13T13:02:32.073Z,8.68
2018-02-13T13:05:00.181Z,8.19
2018-02-13T13:07:28.289Z,7.94
2018-02-13T13:09:56.421Z,7.75
2018-02-13T13:12:24.532Z,7.99
2018-02-13T13:14:52.662Z,7.77
2018-02-13T13:17:20.779Z,8.10
2018-02-13T13:19:48.906Z,8.10
2018-02-13T13:22:17.028Z,8.18
2018-02-13T13:24:45.135Z,7.95
2018-02-13T13:27:13.268Z,7.78
2018-02-13T13:29:41.391Z,7.88
2018-02-13T13:32:09.604Z,8.01
2018-02-13T13:34:37.720Z,7.98
2018-02-13T13:37:05.863Z,7.92
2018-02-13T13:39:33.946Z,7.70
2018-02-13T13:42:02.055Z,7.51
2018-02-13T13:44:30.158Z,7.30
2018-02-13T13:46:58.279Z,7.23
2018-02-13T13:49:26.402Z,7.39
2018-02-13T13:51:54.527Z,7.33
2018-02-13T13:54:22.626Z,7.38
2018-02-13T13:56:50.744Z,7.30
2018-02-13T13:59:18.862Z,7.14
2018-02-13T14:01:46.977Z,7.22
2018-02-13T14:04:15.067Z,7.28
2018-02-13T14:06:43.191Z,7.24
2018-02-13T14:09:11.305Z,7.19
2018-02-13T14:11:39.546Z,7.67
2018-02-13T14:14:07.669Z,7.34
2018-02-13T14:16:35.762Z,7.38
2018-02-13T14:19:03.879Z,7.26
2018-02-13T14:21:31.970Z,7.14
2018-02-13T14:24:00.083Z,7.35
2018-02-13T14:26:28.183Z,7.48
2018-02-13T14:28:56.298Z,7.23
2018-02-13T14:31:24.398Z,7.51
2018-02-13T14:33:52.512Z,7.22
2018-02-13T14:36:20.629Z,7.03
2018-02-13T14:38:48.739Z,7.10
2018-02-13T14:41:16.872Z,7.12
2018-02-13T14:43:44.970Z,7.01
2018-02-13T14:46:13.101Z,6.87
2018-02-13T14:48:41.227Z,7.17
2018-02-13T14:51:09.305Z,6.92
2018-02-13T14:53:37.439Z,6.85
2018-02-13T14:56:05.561Z,6.92
2018-02-13T14:58:33.717Z,6.94
2018-02-13T15:01:01.835Z,7.03
2018-02-13T15:03:29.973Z,6.98
2018-02-13T15:05:58.092Z,6.92
2018-02-13T15:08:26.219Z,6.91
2018-02-13T15:10:54.385Z,7.00
2018-02-13T15:13:22.491Z,6.87
2018-02-13T15:15:50.593Z,6.85
2018-02-13T15:18:24.718Z,6.67
2018-02-13T15:20:52.841Z,6.84
2018-02-13T15:23:20.957Z,6.74
2018-02-13T15:25:49.207Z,6.60
2018-02-13T15:28:17.341Z,6.48
2018-02-13T15:30:45.460Z,6.47
2018-02-13T15:33:13.602Z,6.56
2018-02-13T15:35:41.758Z,6.42
2018-02-13T15:38:09.862Z,6.39
2018-02-13T15:40:37.985Z,6.30
2018-02-13T15:43:06.097Z,6.27
2018-02-13T15:45:34.199Z,6.24
2018-02-13T15:48:02.325Z,6.24
2018-02-13T15:50:30.442Z,6.27
2018-02-13T15:52:58.647Z,6.29
2018-02-13T15:55:26.740Z,6.16
2018-02-13T15:57:54.865Z,6.09
2018-02-13T16:00:22.978Z,6.27
2018-02-13T16:02:51.126Z,6.03
2018-02-13T16:05:19.246Z,6.06
2018-02-13T16:07:47.347Z,6.06
2018-02-13T16:10:18.670Z,6.15
2018-02-13T16:12:46.779Z,6.18
2018-02-13T16:15:14.897Z,6.03
2018-02-13T16:17:43.024Z,6.09
2018-02-13T16:20:11.146Z,6.04
2018-02-13T16:22:39.338Z,5.99
2018-02-13T16:25:08.381Z,6.09
2018-02-13T16:27:36.490Z,6.06
2018-02-13T16:30:04.621Z,5.91
2018-02-13T16:32:32.748Z,5.98
2018-02-13T16:35:00.878Z,5.86
2018-02-13T16:37:28.974Z,5.73
2018-02-13T16:39:57.089Z,5.77
2018-02-13T16:42:25.201Z,5.63
2018-02-13T16:44:53.333Z,5.60
2018-02-13T16:47:21.462Z,5.60
2018-02-13T16:49:49.579Z,5.60
2018-02-13T16:52:17.684Z,5.73
2018-02-13T16:54:45.801Z,5.48
2018-02-13T16:57:13.914Z,5.39
2018-02-13T16:59:42.043Z,5.33
2018-02-13T17:02:10.138Z,5.42
2018-02-13T17:04:38.249Z,5.47
2018-02-13T17:07:06.383Z,5.37
2018-02-13T17:09:34.493Z,5.21
2018-02-13T17:12:02.606Z,5.28
2018-02-13T17:14:30.725Z,5.16
2018-02-13T17:16:58.858Z,5.15
2018-02-13T17:19:26.956Z,5.20
2018-02-13T17:21:55.066Z,5.18
2018-02-13T17:24:23.170Z,5.15
2018-02-13T17:26:51.267Z,5.17
2018-02-13T17:29:19.406Z,5.11
2018-02-13T17:31:47.501Z,4.92
2018-02-13T17:34:15.618Z,4.97
2018-02-13T17:36:43.734Z,4.98
2018-02-13T17:39:11.866Z,4.89
2018-02-13T17:41:40.421Z,6.17
2018-02-13T17:44:08.538Z,5.25
2018-02-13T17:46:36.661Z,5.09
2018-02-13T17:49:04.750Z,4.92
2018-02-13T17:51:32.933Z,4.87
2018-02-13T17:54:01.049Z,5.35
2018-02-13T17:56:29.165Z,4.86
2018-02-13T17:58:57.270Z,4.70
2018-02-13T18:01:25.408Z,4.77
2018-02-13T18:03:53.498Z,4.68
2018-02-13T18:06:21.596Z,4.75
2018-02-13T18:08:49.709Z,4.72
2018-02-13T18:11:17.823Z,4.68
2018-02-13T18:13:45.921Z,4.54
2018-02-13T18:16:14.489Z,4.49
2018-02-13T18:18:42.595Z,4.48
2018-02-13T18:21:10.704Z,4.55
2018-02-13T18:23:38.815Z,4.35
2018-02-13T18:26:06.933Z,4.42
2018-02-13T18:28:35.071Z,4.40
2018-02-13T18:31:03.168Z,4.45
2018-02-13T18:33:31.301Z,4.37
2018-02-13T18:35:59.422Z,4.47
2018-02-13T18:38:27.514Z,4.47
2018-02-13T18:40:55.640Z,4.41
2018-02-13T18:43:23.747Z,4.32
2018-02-13T18:45:51.841Z,4.36
2018-02-13T18:48:20.044Z,4.04
2018-02-13T18:50:48.177Z,4.14
2018-02-13T18:53:16.298Z,4.14
2018-02-13T18:55:44.404Z,4.21
2018-02-13T18:58:12.517Z,3.87
2018-02-13T19:00:40.618Z,4.03
2018-02-13T19:03:08.735Z,4.05
2018-02-13T19:05:36.830Z,4.13
2018-02-13T19:08:04.969Z,3.85
2018-02-13T19:10:33.073Z,3.99
2018-02-13T19:13:01.234Z,3.85
2018-02-13T19:15:29.342Z,3.82
2018-02-13T19:17:57.451Z,3.82
2018-02-13T19:20:25.561Z,3.78
2018-02-13T19:22:53.662Z,3.92
2018-02-13T19:25:21.971Z,3.74
2018-02-13T19:27:50.071Z,3.85
2018-02-13T19:30:18.174Z,3.95
2018-02-13T19:32:46.294Z,3.86
2018-02-13T19:35:14.403Z,3.92
2018-02-13T19:37:42.518Z,3.79
2018-02-13T19:40:10.621Z,3.61
2018-02-13T19:42:38.815Z,3.62
2018-02-13T19:45:06.934Z,3.76
2018-02-13T19:47:35.019Z,3.80
2018-02-13T19:50:03.129Z,3.71
2018-02-13T19:52:31.257Z,3.71
2018-02-13T19:54:59.374Z,3.73
2018-02-13T19:57:27.481Z,3.60
2018-02-13T19:59:55.615Z,3.66
2018-02-13T20:02:23.722Z,3.63
2018-02-13T20:04:51.826Z,3.75
2018-02-13T20:07:19.923Z,3.63
2018-02-13T20:09:48.032Z,3.60
2018-02-13T20:12:16.167Z,3.61
2018-02-13T20:14:44.273Z,3.66
2018-02-13T20:17:12.440Z,3.63
2018-02-13T20:19:40.557Z,3.53
2018-02-13T20:22:08.662Z,3.61
2018-02-13T20:24:36.950Z,3.47
2018-02-13T20:27:07.046Z,3.66
2018-02-13T20:29:35.145Z,3.68
2018-02-13T20:32:03.270Z,3.49
2018-02-13T20:34:31.363Z,3.54
2018-02-13T20:36:59.482Z,3.38
2018-02-13T20:39:27.583Z,3.51
2018-02-13T20:41:55.704Z,3.43
2018-02-13T20:44:23.822Z,3.39
2018-02-13T20:46:51.925Z,3.43
2018-02-13T20:49:20.023Z,3.51
2018-02-13T20:51:48.129Z,3.42
2018-02-13T20:54:16.283Z,3.37
2018-02-13T20:56:44.385Z,3.53
2018-02-13T20:59:12.533Z,3.52
2018-02-13T21:01:40.707Z,3.44
2018-02-13T21:04:08.817Z,3.46
2018-02-13T21:06:36.932Z,3.43
2018-02-13T21:09:05.078Z,3.47
2018-02-13T21:11:33.202Z,3.45
2018-02-13T21:14:01.304Z,3.36
2018-02-13T21:16:29.412Z,3.38
2018-02-13T21:18:57.536Z,3.29
2018-02-13T21:21:25.638Z,3.31
2018-02-13T21:23:53.751Z,3.28
2018-02-13T21:26:23.793Z,3.26
2018-02-13T21:28:52.014Z,3.32
2018-02-13T21:31:20.111Z,3.24
2018-02-13T21:33:48.220Z,3.39
2018-02-13T21:36:16.338Z,3.26
2018-02-13T21:38:44.475Z,3.33
2018-02-13T21:41:12.589Z,3.22
2018-02-13T21:43:44.479Z,3.24
2018-02-13T21:46:12.623Z,3.34
2018-02-13T21:48:40.727Z,3.21
2018-02-13T21:51:09.043Z,3.29
2018-02-13T21:53:37.161Z,3.15
2018-02-13T21:56:05.413Z,3.13
2018-02-13T21:58:33.710Z,3.13
2018-02-13T22:01:02.074Z,3.11
2018-02-13T22:03:30.295Z,3.22
2018-02-13T22:05:58.475Z,3.26
2018-02-13T22:08:26.585Z,3.21
2018-02-13T22:10:54.759Z,3.33
2018-02-13T22:13:22.876Z,3.09
2018-02-13T22:15:50.982Z,3.18
2018-02-13T22:18:19.099Z,3.23
2018-02-13T22:20:51.020Z,3.18
2018-02-13T22:23:19.137Z,3.23
2018-02-13T22:25:47.262Z,3.15
2018-02-13T22:28:15.373Z,3.15
2018-02-13T22:30:43.479Z,3.00
2018-02-13T22:33:12.489Z,3.05
2018-02-13T22:35:40.596Z,3.01
2018-02-13T22:38:08.692Z,2.93
2018-02-13T22:40:36.818Z,3.01
2018-02-13T22:43:04.938Z,2.97
2018-02-13T22:45:33.050Z,3.13
2018-02-13T22:48:01.222Z,2.92
2018-02-13T22:50:29.443Z,3.02
2018-02-13T22:52:57.535Z,3.01
2018-02-13T22:55:25.700Z,2.81
2018-02-13T22:57:53.787Z,2.88
2018-02-13T23:00:21.915Z,2.86
2018-02-13T23:02:50.054Z,2.78
2018-02-13T23:05:18.147Z,2.83
2018-02-13T23:07:46.275Z,2.91
2018-02-13T23:10:14.393Z,3.03
2018-02-13T23:12:42.496Z,2.90
2018-02-13T23:15:12.710Z,2.91
2018-02-13T23:17:40.838Z,2.85
2018-02-13T23:20:08.948Z,2.82
2018-02-13T23:22:37.055Z,2.89
2018-02-13T23:25:05.174Z,2.68
2018-02-13T23:27:33.290Z,2.83
2018-02-13T23:30:01.396Z,2.81
2018-02-13T23:32:29.533Z,2.82
2018-02-13T23:34:57.653Z,2.73
2018-02-13T23:37:25.789Z,2.65
2018-02-13T23:39:53.918Z,2.75
2018-02-13T23:42:22.066Z,2.57
2018-02-13T23:44:50.200Z,2.57
2018-02-13T23:47:18.370Z,2.54
2018-02-13T23:49:50.167Z,2.64
2018-02-13T23:52:18.303Z,2.66
2018-02-13T23:54:46.413Z,2.69
2018-02-13T23:57:14.525Z,2.56
2018-02-13T23:59:42.629Z,2.60
